Terminal Aerodrome Forecast
Issued by NWS Blacksburg, VA

Home | Current Version | Previous Version | Text Only | Print | Product List | Glossary On
Versions: 1 2 3 4 5 6 7 8 9 10 11 12 13 14 15 16 17
000
FTUS41 KRNK 280520
TAFROA
TAF
KROA 280520Z 2806/2906 VRB03KT P6SM VCTS SCT060CB BKN100
      TEMPO 2806/2808 3SM SHRA OVC050
     FM280800 19004KT 6SM SHRA BR VCTS BKN050CB
     FM281200 VRB03KT P6SM VCSH OVC060
     FM281700 24006KT P6SM BKN120
     FM282000 29008KT P6SM BKN060
     FM290000 27005KT P6SM FEW040=

USA.gov is the U.S. government's official web portal to all federal, state and local government web resources and services.